Terminal Aerodrome Forecast
Issued by NWS

Home | Current Version | Previous Version | Graphics & Text | Print | Product List | Glossary On
Versions: 1 2 3 4 5 6 7 8 9 10 11 12 13 14 15 16 17 18 19 20
643
FTUS43 KFGF 230533
TAFBJI
TAF
KBJI 230533Z 2306/2406 00000KT 1SM -SN OVC015
     FM231200 VRB03KT 2SM -SN OVC010
      TEMPO 2312/2314 3/4SM -SN OVC003
     FM231400 33004KT 3SM -SN OVC025
     FM231600 32006KT P6SM BKN025
     FM231900 30008KT P6SM BKN035
     FM240200 26004KT P6SM FEW250=

USA.gov is the U.S. government's official web portal to all federal, state and local government web resources and services.